Mercini Lady — A8DL4 — position and weather

sailwx.info

Track history (hours):
 
Tides and Currents Weather Stations Pressure Air Temp Water Temp Dewpoint Dewpoint Depression Visibility Wind Speed Wind Dir Waves Ship Positions

Mercini Lady

Last reported at 2015-May-24 05:31 UTC. Time now 2015-May-26 09:42 UTC.
Position N 51°53' E 004°22'.

Length 182 m; draft 7.6 m.

Type: Tanker. MMSI: 636012102.

Date/timePositionNaut miles runAvg speedWind from/ knotsBaromVisibWave heightAir tempDewpointWater temp
2015-May-24 05:31N 51°53' E 004°22'2 2.1
2015-May-24 04:33N 51°54' E 004°19'8 8.4
2015-May-24 03:33N 51°58' E 004°08'9 9.2
2015-May-24 02:33N 52°00' E 003°53'8 7.9
2015-May-24 01:33N 51°58' E 003°41'5 5.1
2015-May-24 00:32N 51°54' E 003°34'0 0.0
2015-May-23 23:24N 51°54' E 003°34'0 0.0
2015-May-23 22:27N 51°54' E 003°34'0 0.0
2015-May-23 21:31N 51°54' E 003°34'0 0.0
2015-May-23 20:23N 51°54' E 003°34'0 0.2
2015-May-23 19:29N 51°55' E 003°34'0 0.0
2015-May-23 18:27N 51°55' E 003°34'0 0.0
2015-May-23 17:28N 51°55' E 003°34'0 0.1
2015-May-23 16:31N 51°54' E 003°34'0 0.1
2015-May-23 15:32N 51°54' E 003°34'0 0.0
2015-May-23 14:29N 51°54' E 003°34'0 0.0
2015-May-23 13:33N 51°54' E 003°34'0 0.0
2015-May-23 12:31N 51°54' E 003°34'0 0.0
2015-May-23 11:31N 51°54' E 003°34'0 0.0
2015-May-23 10:26N 51°54' E 003°34'0 0.0
2015-May-23 09:33N 51°54' E 003°34'0 0.0
2015-May-23 08:25N 51°54' E 003°34'0 0.2
2015-May-23 07:16N 51°55' E 003°34'0 0.0
2015-May-23 02:31N 51°55' E 003°34'0 0.1
2015-May-23 01:32N 51°54' E 003°34'0 0.0
2015-May-23 00:30N 51°54' E 003°34'0 0.0
2015-May-22 23:33N 51°54' E 003°34'0 0.0
2015-May-22 22:31N 51°54' E 003°34'0 0.2
2015-May-22 21:32N 51°55' E 003°34'0 0.1
2015-May-22 20:29N 51°55' E 003°34'0 0.0
2015-May-22 19:33N 51°55' E 003°34'0 0.0
2015-May-22 18:31N 51°55' E 003°34'0 0.0
2015-May-22 17:31N 51°55' E 003°34'0 0.0
2015-May-22 16:29N 51°55' E 003°34'0 0.0
2015-May-22 15:30N 51°55' E 003°34'0 0.0
2015-May-22 14:33N 51°55' E 003°34'0 0.1
2015-May-22 12:26N 51°54' E 003°34'0 0.0
2015-May-22 11:32N 51°54' E 003°34'0 0.0
2015-May-22 10:33N 51°54' E 003°34'0 0.1
2015-May-22 09:25N 51°54' E 003°34'0 0.1
2015-May-22 08:26N 51°55' E 003°34'0 0.0
2015-May-22 07:32N 51°55' E 003°34'0 0.0
2015-May-22 06:24N 51°55' E 003°34'0 0.0
2015-May-22 05:30N 51°55' E 003°34'0 0.0
2015-May-22 04:31N 51°55' E 003°34'0 0.0
2015-May-22 03:20N 51°55' E 003°34'0 0.1
2015-May-22 01:09N 51°54' E 003°34'0 0.1
2015-May-22 00:31N 51°54' E 003°34'0 0.0
2015-May-21 23:25N 51°54' E 003°34'0 0.0
2015-May-21 22:29N 51°54' E 003°34'0 0.1
2015-May-21 21:30N 51°54' E 003°34'0 0.2
2015-May-21 20:27N 51°55' E 003°34'0 0.0
2015-May-21 19:28N 51°55' E 003°34'0 0.0
2015-May-21 18:29N 51°55' E 003°34'0 0.0
2015-May-21 17:32N 51°55' E 003°34'0 0.0
2015-May-21 16:30N 51°55' E 003°34'0 0.0
2015-May-21 15:10N 51°55' E 003°34'0 0.1
2015-May-21 13:20N 51°54' E 003°34'0 0.1
2015-May-21 12:27N 51°54' E 003°34'0 0.0
2015-May-21 11:33N 51°54' E 003°34'0 0.0
2015-May-21 10:10N 51°54' E 003°34'0 0.0
2015-May-21 09:23N 51°54' E 003°34'0 0.2
2015-May-21 08:31N 51°54' E 003°34'4 4.4
2015-May-21 07:33N 51°53' E 003°28'8 7.6
2015-May-21 06:31N 51°54' E 003°15'1411.2
2015-May-21 05:14N 51°49' E 002°53'2112.4
2015-May-21 03:32N 51°37' E 002°26'1313.3
2015-May-21 02:33N 51°27' E 002°12'1312.5
2015-May-21 01:34N 51°15' E 002°05'1413.9
2015-May-21 00:33N 51°08' E 001°46'1313.4
2015-May-20 23:33N 50°59' E 001°31'1111.6
2015-May-20 22:34N 50°48' E 001°22'1110.7
2015-May-20 21:30N 50°38' E 001°14'1210.5
2015-May-20 20:23N 50°30' E 001°00'910.5
2015-May-20 19:31N 50°28' E 000°47'  
Track history (hours):
 
Tides and Currents Weather Stations Pressure Air Temp Water Temp Dewpoint Dewpoint Depression Visibility Wind Speed Wind Dir Waves Ship Positions

Mercini Lady

Last reported at 2015-May-24 05:31 UTC. Time now 2015-May-26 09:42 UTC.
Position N 51°53' E 004°22'.

Length 182 m; draft 7.6 m.

Type: Tanker. MMSI: 636012102.

Date/timePositionNaut miles runAvg speedWind from/ knotsBaromVisibWave heightAir tempDewpointWater temp
2015-May-24 05:31N 51°53' E 004°22'2 2.1
2015-May-24 04:33N 51°54' E 004°19'8 8.4
2015-May-24 03:33N 51°58' E 004°08'9 9.2
2015-May-24 02:33N 52°00' E 003°53'8 7.9
2015-May-24 01:33N 51°58' E 003°41'5 5.1
2015-May-24 00:32N 51°54' E 003°34'0 0.0
2015-May-23 23:24N 51°54' E 003°34'0 0.0
2015-May-23 22:27N 51°54' E 003°34'0 0.0
2015-May-23 21:31N 51°54' E 003°34'0 0.0
2015-May-23 20:23N 51°54' E 003°34'0 0.2
2015-May-23 19:29N 51°55' E 003°34'0 0.0
2015-May-23 18:27N 51°55' E 003°34'0 0.0
2015-May-23 17:28N 51°55' E 003°34'0 0.1
2015-May-23 16:31N 51°54' E 003°34'0 0.1
2015-May-23 15:32N 51°54' E 003°34'0 0.0
2015-May-23 14:29N 51°54' E 003°34'0 0.0
2015-May-23 13:33N 51°54' E 003°34'0 0.0
2015-May-23 12:31N 51°54' E 003°34'0 0.0
2015-May-23 11:31N 51°54' E 003°34'0 0.0
2015-May-23 10:26N 51°54' E 003°34'0 0.0
2015-May-23 09:33N 51°54' E 003°34'0 0.0
2015-May-23 08:25N 51°54' E 003°34'0 0.2
2015-May-23 07:16N 51°55' E 003°34'0 0.0
2015-May-23 02:31N 51°55' E 003°34'0 0.1
2015-May-23 01:32N 51°54' E 003°34'0 0.0
2015-May-23 00:30N 51°54' E 003°34'0 0.0
2015-May-22 23:33N 51°54' E 003°34'0 0.0
2015-May-22 22:31N 51°54' E 003°34'0 0.2
2015-May-22 21:32N 51°55' E 003°34'0 0.1
2015-May-22 20:29N 51°55' E 003°34'0 0.0
2015-May-22 19:33N 51°55' E 003°34'0 0.0
2015-May-22 18:31N 51°55' E 003°34'0 0.0
2015-May-22 17:31N 51°55' E 003°34'0 0.0
2015-May-22 16:29N 51°55' E 003°34'0 0.0
2015-May-22 15:30N 51°55' E 003°34'0 0.0
2015-May-22 14:33N 51°55' E 003°34'0 0.1
2015-May-22 12:26N 51°54' E 003°34'0 0.0
2015-May-22 11:32N 51°54' E 003°34'0 0.0
2015-May-22 10:33N 51°54' E 003°34'0 0.1
2015-May-22 09:25N 51°54' E 003°34'0 0.1
2015-May-22 08:26N 51°55' E 003°34'0 0.0
2015-May-22 07:32N 51°55' E 003°34'0 0.0
2015-May-22 06:24N 51°55' E 003°34'0 0.0
2015-May-22 05:30N 51°55' E 003°34'0 0.0
2015-May-22 04:31N 51°55' E 003°34'0 0.0
2015-May-22 03:20N 51°55' E 003°34'0 0.1
2015-May-22 01:09N 51°54' E 003°34'0 0.1
2015-May-22 00:31N 51°54' E 003°34'0 0.0
2015-May-21 23:25N 51°54' E 003°34'0 0.0
2015-May-21 22:29N 51°54' E 003°34'0 0.1
2015-May-21 21:30N 51°54' E 003°34'0 0.2
2015-May-21 20:27N 51°55' E 003°34'0 0.0
2015-May-21 19:28N 51°55' E 003°34'0 0.0
2015-May-21 18:29N 51°55' E 003°34'0 0.0
2015-May-21 17:32N 51°55' E 003°34'0 0.0
2015-May-21 16:30N 51°55' E 003°34'0 0.0
2015-May-21 15:10N 51°55' E 003°34'0 0.1
2015-May-21 13:20N 51°54' E 003°34'0 0.1
2015-May-21 12:27N 51°54' E 003°34'0 0.0
2015-May-21 11:33N 51°54' E 003°34'0 0.0
2015-May-21 10:10N 51°54' E 003°34'0 0.0
2015-May-21 09:23N 51°54' E 003°34'0 0.2
2015-May-21 08:31N 51°54' E 003°34'4 4.4
2015-May-21 07:33N 51°53' E 003°28'8 7.6
2015-May-21 06:31N 51°54' E 003°15'1411.2
2015-May-21 05:14N 51°49' E 002°53'2112.4
2015-May-21 03:32N 51°37' E 002°26'1313.3
2015-May-21 02:33N 51°27' E 002°12'1312.5
2015-May-21 01:34N 51°15' E 002°05'1413.9
2015-May-21 00:33N 51°08' E 001°46'1313.4
2015-May-20 23:33N 50°59' E 001°31'1111.6
2015-May-20 22:34N 50°48' E 001°22'1110.7
2015-May-20 21:30N 50°38' E 001°14'1210.5
2015-May-20 20:23N 50°30' E 001°00'910.5
2015-May-20 19:31N 50°28' E 000°47'  

Dump ship's entire track history